31°C Temp
15°C Dewpoint
% Humidity
Temperature
19 KM/H
12 MPH
10 KTS
80°
Due East

Wind Speed
Despejado
Pressure 1019.92 (hPa) - 30.12 (in)
Visibility 6.2 (mi) - 10.0 (km)

Current Conditions
LEVC
Location 70(km)
Metar :LEVC 271200Z 08010KT 020V130 CAVOK 31/15 Q1020 NOSIG
Thu 27th June 14:00 pm

Airport
  Metar Aviation API Data Provided by https://www.checkwx.com/ PHP scripts by weather34.com ©2019